Flight Number: AVA1275 Duration: 2:00
Departure: Arlanda (ESSA) at 11:45 Distance: 714.064 Nm
Arrival: Kiev Borispol (UKBB) at 13:45 Equipment: B737

Weather Information
Stockholm / Arlanda, Sweden (ESSA) 59-39N 017-57E 61M Jun 19, 2024 - 09:50 AM EDT / 2024.06.19 1350 UTC
Wind: from the WSW (240 degrees) at 8 MPH (7 KT):0
Visibility: greater than 7 mile(s):0 Temperature: 60 F (16 C) Dew Point: 55 F (13 C) Relative Humidity: 82% Pressure (altimeter): 29.71 in. Hg (1006 hPa)
ob: ESSA 191350Z 24007KT CAVOK 16/13 Q1006 TEMPO SHRA cycle: 14
Sunrise: 01:35 Sunset: 20:04 (UTC)

Boryspil, Ukraine (UKBB) 50-20N 030-58E 122M Feb 23, 2022 - 10:30 PM EST / 2022.02.24 0330 UTC
Wind: from the S (190 degrees) at 2 MPH (2 KT):0
Visibility: 3 mile(s):0
Sky conditions: mostly cloudy Weather: light rain; mist Temperature: 33 F (1 C) Dew Point: 33 F (1 C) Relative Humidity: 100% Pressure (altimeter): 30.12 in. Hg (1020 hPa)
ob: UKBB 240330Z 19001MPS 5000 -RA BR SCT008 BKN016 01/01 Q1020 TEMPO 1000 BR cycle: 3
Sunrise: 01:49 Sunset: 18:06 (UTC)

TAF:2022/02/23 21:55 TAF AMD UKBB 232151Z 2321/2418 20003MPS 6000 BKN007 TX05/2412Z TNM01/2323Z TEMPO 2322/2302 1000 FZRA SHSN BR BKN003 SCT016CB TEMPO 2402/2406 1000 -SHSN BR BKN003 SCT016CB BECMG 2407/2409 30003G08MPS 9999 BKN015

Previous Pireps for this route
Date Flightnr Aircraft Flight time Fuel used Landing rate On time
2016-10-18AVA1275B73702.0310727-261Yes
2018-02-02AVA1275B73701.5810824-225Yes
2020-05-11AVA1275B73701.5810688-187Yes
(pireps marked green are flown by you)

Route map